createdAt,value
2018-11-13T00:01:17.622Z,10.99
2018-11-13T00:03:44.749Z,10.96
2018-11-13T00:06:11.995Z,10.95
2018-11-13T00:08:39.200Z,10.96
2018-11-13T00:11:06.424Z,10.87
2018-11-13T00:13:33.605Z,10.81
2018-11-13T00:16:00.916Z,10.76
2018-11-13T00:18:28.137Z,10.66
2018-11-13T00:20:55.260Z,10.61
2018-11-13T00:23:22.457Z,10.71
2018-11-13T00:25:49.665Z,10.61
2018-11-13T00:30:18.820Z,10.58
2018-11-13T00:32:45.974Z,10.64
2018-11-13T00:35:14.012Z,10.57
2018-11-13T00:37:41.279Z,10.49
2018-11-13T00:40:09.689Z,10.53
2018-11-13T00:42:36.913Z,10.57
2018-11-13T00:45:04.533Z,10.60
2018-11-13T00:47:31.677Z,10.68
2018-11-13T00:49:58.820Z,10.63
2018-11-13T00:52:26.033Z,10.47
2018-11-13T00:54:53.255Z,10.32
2018-11-13T00:57:20.430Z,10.19
2018-11-13T00:59:47.707Z,10.05
2018-11-13T01:02:14.862Z,9.93
2018-11-13T01:04:42.149Z,9.87
2018-11-13T01:07:10.379Z,9.76
2018-11-13T01:09:37.548Z,9.84
2018-11-13T01:12:04.752Z,9.66
2018-11-13T01:14:32.040Z,9.53
2018-11-13T01:16:59.189Z,9.43
2018-11-13T01:19:26.346Z,9.34
2018-11-13T01:21:53.532Z,9.21
2018-11-13T01:24:20.694Z,9.11
2018-11-13T01:26:47.865Z,9.07
2018-11-13T01:29:15.078Z,9.03
2018-11-13T01:31:42.321Z,9.01
2018-11-13T01:34:09.444Z,9.01
2018-11-13T01:36:36.641Z,9.25
2018-11-13T01:39:06.113Z,9.32
2018-11-13T01:41:33.273Z,9.28
2018-11-13T01:44:00.535Z,9.26
2018-11-13T01:46:27.710Z,9.28
2018-11-13T01:48:55.240Z,9.37
2018-11-13T01:51:22.077Z,9.35
2018-11-13T01:53:49.225Z,9.32
2018-11-13T01:56:17.426Z,9.31
2018-11-13T01:58:44.620Z,9.25
2018-11-13T02:01:11.757Z,9.22
2018-11-13T02:03:38.865Z,9.17
2018-11-13T02:06:06.267Z,9.14
2018-11-13T02:08:33.409Z,9.21
2018-11-13T02:11:00.570Z,9.27
2018-11-13T02:13:27.816Z,9.35
2018-11-13T02:15:54.945Z,9.33
2018-11-13T02:18:22.076Z,9.27
2018-11-13T02:20:49.248Z,9.19
2018-11-13T02:23:16.412Z,9.14
2018-11-13T02:25:43.552Z,9.15
2018-11-13T02:28:10.786Z,9.17
2018-11-13T02:30:37.977Z,9.20
2018-11-13T02:33:05.413Z,9.18
2018-11-13T02:35:32.628Z,9.26
2018-11-13T02:37:59.803Z,9.24
2018-11-13T02:40:26.977Z,9.28
2018-11-13T02:42:54.165Z,9.32
2018-11-13T02:45:21.325Z,9.39
2018-11-13T02:47:48.496Z,9.48
2018-11-13T02:50:16.880Z,9.46
2018-11-13T02:52:44.045Z,9.67
2018-11-13T02:55:11.726Z,9.61
2018-11-13T02:57:39.105Z,9.61
2018-11-13T03:00:09.541Z,9.60
2018-11-13T03:02:37.807Z,9.63
2018-11-13T03:05:06.229Z,9.50
2018-11-13T03:07:33.362Z,9.52
2018-11-13T03:10:00.509Z,9.56
2018-11-13T03:12:27.697Z,9.63
2018-11-13T03:14:54.840Z,9.58
2018-11-13T03:17:21.974Z,9.54
2018-11-13T03:19:49.187Z,9.57
2018-11-13T03:22:16.331Z,9.54
2018-11-13T03:24:43.437Z,9.53
2018-11-13T03:27:10.621Z,9.54
2018-11-13T03:29:37.777Z,9.55
2018-11-13T03:32:05.035Z,9.54
2018-11-13T03:34:32.365Z,9.58
2018-11-13T03:36:59.605Z,9.62
2018-11-13T03:39:26.725Z,9.58
2018-11-13T03:41:53.920Z,9.59
2018-11-13T03:44:21.037Z,9.62
2018-11-13T03:46:48.188Z,9.70
2018-11-13T03:49:16.470Z,9.65
2018-11-13T03:51:43.631Z,9.61
2018-11-13T03:54:10.773Z,9.66
2018-11-13T03:56:37.967Z,9.72
2018-11-13T03:59:05.119Z,9.75
2018-11-13T04:01:32.285Z,9.70
2018-11-13T04:04:02.772Z,9.70
2018-11-13T04:06:29.911Z,9.74
2018-11-13T04:08:57.067Z,9.77
2018-11-13T04:11:24.250Z,9.72
2018-11-13T04:13:51.410Z,9.70
2018-11-13T04:16:18.570Z,9.73
2018-11-13T04:18:45.778Z,9.76
2018-11-13T04:21:12.952Z,9.75
2018-11-13T04:23:40.082Z,9.82
2018-11-13T04:26:07.277Z,9.68
2018-11-13T04:28:34.428Z,9.79
2018-11-13T04:31:01.591Z,9.86
2018-11-13T04:33:28.804Z,9.79
2018-11-13T04:35:56.005Z,9.86
2018-11-13T04:38:23.145Z,9.87
2018-11-13T04:40:50.380Z,9.87
2018-11-13T04:43:17.530Z,9.80
2018-11-13T04:45:44.696Z,9.85
2018-11-13T04:48:11.905Z,9.87
2018-11-13T04:50:39.067Z,9.83
2018-11-13T04:53:06.218Z,9.82
2018-11-13T04:55:33.473Z,9.79
2018-11-13T04:58:00.592Z,9.76
2018-11-13T05:00:27.752Z,9.82
2018-11-13T05:02:55.048Z,9.78
2018-11-13T05:05:22.400Z,9.78
2018-11-13T05:07:50.843Z,9.76
2018-11-13T05:10:18.099Z,9.73
2018-11-13T05:12:46.098Z,9.76
2018-11-13T05:15:13.260Z,9.83
2018-11-13T05:17:41.197Z,9.80
2018-11-13T05:20:09.126Z,9.85
2018-11-13T05:22:36.301Z,9.82
2018-11-13T05:25:05.371Z,9.79
2018-11-13T05:27:32.505Z,9.77
2018-11-13T05:29:59.735Z,9.78
2018-11-13T05:32:27.099Z,9.82
2018-11-13T05:34:54.238Z,9.79
2018-11-13T05:37:21.464Z,9.82
2018-11-13T05:39:48.676Z,9.81
2018-11-13T05:42:15.827Z,9.80
2018-11-13T05:44:42.968Z,9.81
2018-11-13T05:47:10.425Z,9.85
2018-11-13T05:49:37.556Z,9.78
2018-11-13T05:52:05.128Z,9.75
2018-11-13T05:54:32.354Z,9.79
2018-11-13T05:56:59.496Z,9.84
2018-11-13T05:59:26.693Z,9.93
2018-11-13T06:01:53.875Z,9.80
2018-11-13T06:04:21.028Z,9.76
2018-11-13T06:06:48.176Z,9.76
2018-11-13T06:09:15.388Z,9.88
2018-11-13T06:11:42.562Z,9.85
2018-11-13T06:14:09.805Z,9.77
2018-11-13T06:16:36.986Z,9.82
2018-11-13T06:19:04.236Z,9.80
2018-11-13T06:21:31.438Z,9.79
2018-11-13T06:23:58.667Z,9.79
2018-11-13T06:26:25.818Z,9.78
2018-11-13T06:28:52.957Z,9.81
2018-11-13T06:31:20.214Z,9.79
2018-11-13T06:33:47.349Z,9.82
2018-11-13T06:36:14.484Z,9.79
2018-11-13T06:38:41.756Z,9.77
2018-11-13T06:41:09.004Z,9.82
2018-11-13T06:43:36.169Z,9.76
2018-11-13T06:46:03.373Z,9.82
2018-11-13T06:48:30.548Z,9.84
2018-11-13T06:50:57.781Z,9.83
2018-11-13T06:53:25.004Z,9.87
2018-11-13T06:55:56.684Z,9.90
2018-11-13T06:58:23.879Z,9.90
2018-11-13T07:00:51.158Z,9.92
2018-11-13T07:03:18.360Z,9.93
2018-11-13T07:05:45.545Z,10.01
2018-11-13T07:08:12.726Z,9.97
2018-11-13T07:10:39.907Z,9.98
2018-11-13T07:13:07.016Z,10.02
2018-11-13T07:15:34.205Z,9.99
2018-11-13T07:18:02.638Z,10.00
2018-11-13T07:20:31.101Z,10.08
2018-11-13T07:22:58.309Z,10.11
2018-11-13T07:25:25.627Z,10.06
2018-11-13T07:27:52.827Z,10.03
2018-11-13T07:30:20.793Z,10.07
2018-11-13T07:32:47.961Z,10.05
2018-11-13T07:35:16.161Z,10.05
2018-11-13T07:37:45.151Z,10.08
2018-11-13T07:40:12.376Z,10.08
2018-11-13T07:42:39.498Z,10.00
2018-11-13T07:45:08.888Z,10.02
2018-11-13T07:47:36.197Z,10.13
2018-11-13T07:50:04.265Z,10.10
2018-11-13T07:52:31.640Z,10.08
2018-11-13T07:54:58.844Z,10.08
2018-11-13T07:57:25.978Z,10.10
2018-11-13T07:59:53.146Z,10.18
2018-11-13T08:02:20.285Z,10.21
2018-11-13T08:04:47.848Z,10.21
2018-11-13T08:07:15.143Z,10.26
2018-11-13T08:09:42.686Z,10.23
2018-11-13T08:12:09.847Z,10.24
2018-11-13T08:14:37.007Z,10.26
2018-11-13T08:17:04.138Z,10.29
2018-11-13T08:19:31.330Z,10.27
2018-11-13T08:21:58.576Z,10.33
2018-11-13T08:24:25.744Z,10.29
2018-11-13T08:26:52.913Z,10.27
2018-11-13T08:29:20.176Z,10.30
2018-11-13T08:31:47.266Z,10.29
2018-11-13T08:34:15.879Z,10.34
2018-11-13T08:36:43.379Z,10.37
2018-11-13T08:39:12.133Z,10.42
2018-11-13T08:41:39.734Z,10.43
2018-11-13T08:44:07.952Z,10.45
2018-11-13T08:46:35.289Z,10.48
2018-11-13T08:49:02.572Z,10.52
2018-11-13T08:51:29.765Z,10.58
2018-11-13T08:53:57.309Z,10.56
2018-11-13T08:56:25.697Z,10.55
2018-11-13T08:58:53.165Z,10.56
2018-11-13T09:01:20.412Z,10.47
2018-11-13T09:03:47.565Z,10.53
2018-11-13T09:06:15.673Z,10.56
2018-11-13T09:08:42.835Z,10.58
2018-11-13T09:11:10.071Z,10.55
2018-11-13T09:13:37.627Z,10.64
2018-11-13T09:16:05.005Z,10.69
2018-11-13T09:18:32.268Z,10.61
2018-11-13T09:20:59.606Z,10.62
2018-11-13T09:23:27.417Z,10.60
2018-11-13T09:25:54.549Z,10.66
2018-11-13T09:28:21.785Z,10.64
2018-11-13T09:30:49.067Z,10.66
2018-11-13T09:33:16.070Z,10.70
2018-11-13T09:35:43.404Z,10.71
2018-11-13T09:38:10.540Z,10.72
2018-11-13T09:40:37.656Z,10.74
2018-11-13T09:43:05.062Z,10.75
2018-11-13T09:45:32.192Z,10.73
2018-11-13T09:47:59.328Z,10.80
2018-11-13T09:50:26.620Z,10.82
2018-11-13T09:52:53.843Z,10.84
2018-11-13T09:55:21.988Z,10.95
2018-11-13T09:57:49.305Z,10.90
2018-11-13T10:00:19.304Z,10.95
2018-11-13T10:02:48.021Z,10.97
2018-11-13T10:05:16.198Z,10.95
2018-11-13T10:07:43.868Z,10.98
2018-11-13T10:10:11.516Z,10.98
2018-11-13T10:12:38.781Z,11.00
2018-11-13T10:15:08.470Z,10.99
2018-11-13T10:17:35.771Z,10.99
2018-11-13T10:20:02.989Z,11.00
2018-11-13T10:22:30.134Z,10.96
2018-11-13T10:24:57.287Z,10.96
2018-11-13T10:27:24.470Z,11.02
2018-11-13T10:29:51.676Z,11.02
2018-11-13T10:32:18.802Z,11.04
2018-11-13T10:34:45.982Z,11.15
2018-11-13T10:37:13.152Z,11.08
2018-11-13T10:39:40.380Z,11.17
2018-11-13T10:42:07.575Z,11.21
2018-11-13T10:44:34.688Z,11.31
2018-11-13T10:47:01.806Z,11.35
2018-11-13T10:49:28.973Z,11.38
2018-11-13T10:51:56.132Z,11.40
2018-11-13T10:54:23.369Z,11.46
2018-11-13T10:56:50.609Z,11.47
2018-11-13T10:59:17.732Z,11.50
2018-11-13T11:01:50.974Z,11.52
2018-11-13T11:04:23.797Z,11.52
2018-11-13T11:06:51.069Z,11.55
2018-11-13T11:09:18.248Z,11.61
2018-11-13T11:11:45.377Z,11.62
2018-11-13T11:14:12.574Z,11.66
2018-11-13T11:16:39.702Z,11.64
2018-11-13T11:19:06.895Z,11.64
2018-11-13T11:21:34.045Z,11.73
2018-11-13T11:24:01.279Z,11.78
2018-11-13T11:26:28.518Z,11.80
2018-11-13T11:28:55.724Z,11.81
2018-11-13T11:31:22.854Z,11.78
2018-11-13T11:33:50.074Z,11.79
2018-11-13T11:36:17.283Z,11.85
2018-11-13T11:38:44.518Z,11.83
2018-11-13T11:41:11.599Z,11.93
2018-11-13T11:43:38.939Z,11.89
2018-11-13T11:46:06.069Z,11.93
2018-11-13T11:48:33.194Z,11.91
2018-11-13T11:51:00.386Z,11.90
2018-11-13T11:53:27.526Z,11.95
2018-11-13T11:55:54.657Z,11.91
2018-11-13T11:58:21.851Z,11.93
2018-11-13T12:00:49.148Z,11.84
2018-11-13T12:03:16.186Z,11.81
2018-11-13T12:05:43.360Z,11.85
2018-11-13T12:08:10.519Z,11.84
2018-11-13T12:10:37.733Z,11.85
2018-11-13T12:13:07.625Z,11.88
2018-11-13T12:15:34.748Z,11.94
2018-11-13T12:18:01.878Z,12.00
2018-11-13T12:20:29.072Z,12.02
2018-11-13T12:22:56.307Z,12.09
2018-11-13T12:25:23.441Z,12.13
2018-11-13T12:27:50.635Z,12.12
2018-11-13T12:30:19.113Z,12.08
2018-11-13T12:32:47.057Z,12.21
2018-11-13T12:35:15.324Z,12.26
2018-11-13T12:37:42.524Z,12.31
2018-11-13T12:40:12.117Z,12.39
2018-11-13T12:42:39.296Z,12.38
2018-11-13T12:45:06.965Z,12.47
2018-11-13T12:47:34.149Z,12.62
2018-11-13T12:50:01.496Z,12.89
2018-11-13T12:52:28.649Z,13.12
2018-11-13T12:54:55.816Z,13.15
2018-11-13T12:57:23.114Z,13.27
2018-11-13T12:59:50.232Z,13.27
2018-11-13T13:02:17.491Z,13.20
2018-11-13T13:04:44.659Z,13.17
2018-11-13T13:07:11.820Z,13.11
2018-11-13T13:09:38.982Z,13.11
2018-11-13T13:12:07.336Z,13.12
2018-11-13T13:14:34.548Z,13.22
2018-11-13T13:17:01.734Z,13.32
2018-11-13T13:19:28.938Z,13.41
2018-11-13T13:21:56.113Z,13.14
2018-11-13T13:24:23.318Z,13.08
2018-11-13T13:26:50.559Z,13.00
2018-11-13T13:29:17.745Z,13.01
2018-11-13T13:31:44.973Z,13.08
2018-11-13T13:34:12.242Z,13.04
2018-11-13T13:36:39.453Z,12.91
2018-11-13T13:39:07.567Z,12.82
2018-11-13T13:41:34.944Z,12.76
2018-11-13T13:44:02.236Z,12.66
2018-11-13T13:46:29.467Z,12.75
2018-11-13T13:48:56.761Z,12.70
2018-11-13T13:51:23.954Z,12.70
2018-11-13T13:53:51.190Z,12.71
2018-11-13T13:56:18.413Z,12.71
2018-11-13T13:58:45.605Z,12.63
2018-11-13T14:01:12.967Z,12.55
2018-11-13T14:03:40.122Z,12.52
2018-11-13T14:06:07.348Z,12.59
2018-11-13T14:08:34.545Z,12.48
2018-11-13T14:11:01.756Z,12.51
2018-11-13T14:13:28.933Z,12.43
2018-11-13T14:15:56.112Z,12.44
2018-11-13T14:18:23.338Z,12.40
2018-11-13T14:20:50.567Z,12.33
2018-11-13T14:23:17.773Z,12.24
2018-11-13T14:25:45.093Z,12.27
2018-11-13T14:28:12.241Z,12.19
2018-11-13T14:30:39.426Z,12.25
2018-11-13T14:33:08.005Z,12.23
2018-11-13T14:35:35.249Z,12.21
2018-11-13T14:38:02.822Z,12.18
2018-11-13T14:40:39.441Z,12.11
2018-11-13T14:43:06.909Z,12.03
2018-11-13T14:45:34.103Z,11.93
2018-11-13T14:48:01.445Z,11.79
2018-11-13T14:50:30.694Z,11.66
2018-11-13T14:52:58.036Z,11.54
2018-11-13T14:55:28.288Z,11.42
2018-11-13T14:57:55.933Z,11.32
2018-11-13T15:00:24.422Z,11.24
2018-11-13T15:02:52.141Z,11.13
2018-11-13T15:05:20.351Z,11.10
2018-11-13T15:07:48.893Z,11.06
2018-11-13T15:10:25.041Z,11.01
2018-11-13T15:12:52.218Z,11.00
2018-11-13T15:15:19.431Z,10.96
2018-11-13T15:17:46.655Z,10.98
2018-11-13T15:20:15.242Z,10.97
2018-11-13T15:22:44.240Z,10.99
2018-11-13T15:25:13.385Z,11.06
2018-11-13T15:27:42.924Z,11.15
2018-11-13T15:30:18.422Z,11.13
2018-11-13T15:32:54.146Z,11.18
2018-11-13T15:35:21.437Z,11.45
2018-11-13T15:37:48.597Z,11.42
2018-11-13T15:40:18.333Z,11.37
2018-11-13T15:42:47.684Z,11.37
2018-11-13T15:45:16.108Z,11.25
2018-11-13T15:47:44.085Z,11.21
2018-11-13T15:50:14.773Z,11.19
2018-11-13T15:52:44.865Z,11.12
2018-11-13T15:55:12.588Z,10.93
2018-11-13T15:57:40.615Z,10.73
2018-11-13T16:00:13.158Z,10.60
2018-11-13T16:02:41.242Z,10.44
2018-11-13T16:05:17.222Z,10.36
2018-11-13T16:07:44.494Z,10.28
2018-11-13T16:10:11.912Z,10.07
2018-11-13T16:12:39.251Z,9.96
2018-11-13T16:15:06.475Z,9.82
2018-11-13T16:17:33.693Z,9.78
2018-11-13T16:20:01.038Z,9.71
2018-11-13T16:22:28.267Z,9.71
2018-11-13T16:24:55.704Z,9.64
2018-11-13T16:27:22.927Z,9.62
2018-11-13T16:29:50.271Z,9.67
2018-11-13T16:32:17.441Z,9.65
2018-11-13T16:34:44.796Z,9.68
2018-11-13T16:37:11.956Z,9.69
2018-11-13T16:39:39.160Z,9.71
2018-11-13T16:42:06.603Z,9.88
2018-11-13T16:44:33.753Z,9.86
2018-11-13T16:47:01.024Z,9.92
2018-11-13T16:49:28.236Z,9.97
2018-11-13T16:51:55.394Z,9.94
2018-11-13T16:54:22.746Z,9.99
2018-11-13T16:56:53.344Z,10.12
2018-11-13T16:59:20.526Z,10.20
2018-11-13T17:01:47.690Z,10.19
2018-11-13T17:04:14.909Z,10.19
2018-11-13T17:06:42.184Z,10.19
2018-11-13T17:09:09.728Z,10.15
2018-11-13T17:11:37.104Z,10.07
2018-11-13T17:14:04.394Z,9.96
2018-11-13T17:16:31.709Z,9.88
2018-11-13T17:18:59.059Z,9.79
2018-11-13T17:21:26.438Z,9.73
2018-11-13T17:23:53.663Z,9.73
2018-11-13T17:26:20.941Z,9.71
2018-11-13T17:28:48.113Z,9.65
2018-11-13T17:31:15.317Z,9.59
2018-11-13T17:33:42.590Z,9.50
2018-11-13T17:36:09.769Z,9.48
2018-11-13T17:38:36.896Z,9.42
2018-11-13T17:41:04.326Z,9.39
2018-11-13T17:43:31.547Z,9.33
2018-11-13T17:45:58.705Z,9.25
2018-11-13T17:48:25.916Z,9.25
2018-11-13T17:50:53.086Z,9.33
2018-11-13T17:53:20.270Z,9.16
2018-11-13T17:55:47.484Z,9.14
2018-11-13T17:58:15.144Z,9.05
2018-11-13T18:00:44.604Z,9.03
2018-11-13T18:03:13.032Z,9.02
2018-11-13T18:05:40.626Z,9.07
2018-11-13T18:08:08.690Z,8.98
2018-11-13T18:10:37.200Z,8.97
2018-11-13T18:13:05.190Z,8.97
2018-11-13T18:15:32.373Z,9.01
2018-11-13T18:17:59.781Z,9.04
2018-11-13T18:20:30.885Z,8.92
2018-11-13T18:22:58.098Z,8.87
2018-11-13T18:25:25.410Z,8.84
2018-11-13T18:27:53.928Z,8.75
2018-11-13T18:30:25.157Z,8.72
2018-11-13T18:32:52.745Z,8.60
2018-11-13T18:35:21.248Z,8.57
2018-11-13T18:37:49.220Z,8.49
2018-11-13T18:40:17.419Z,8.44
2018-11-13T18:42:46.176Z,8.37
2018-11-13T18:45:16.396Z,8.35
2018-11-13T18:47:43.634Z,8.27
2018-11-13T18:50:44.858Z,8.23
2018-11-13T18:53:12.831Z,8.16
2018-11-13T18:55:40.268Z,8.08
2018-11-13T18:58:08.110Z,8.05
2018-11-13T19:00:36.543Z,8.04
2018-11-13T19:03:04.945Z,7.98
2018-11-13T19:05:32.433Z,7.82
2018-11-13T19:07:59.794Z,7.89
2018-11-13T19:10:34.240Z,7.84
2018-11-13T19:13:03.676Z,7.74
2018-11-13T19:15:32.570Z,7.66
2018-11-13T19:17:59.911Z,7.65
2018-11-13T19:20:27.393Z,7.63
2018-11-13T19:22:54.441Z,7.56
2018-11-13T19:25:24.696Z,7.53
2018-11-13T19:27:52.409Z,7.53
2018-11-13T19:30:20.464Z,7.48
2018-11-13T19:32:47.684Z,7.36
2018-11-13T19:35:15.476Z,7.31
2018-11-13T19:37:42.610Z,7.24
2018-11-13T19:40:12.649Z,7.22
2018-11-13T19:42:39.824Z,7.18
2018-11-13T19:45:07.588Z,7.13
2018-11-13T19:47:35.525Z,7.11
2018-11-13T19:50:03.637Z,7.12
2018-11-13T19:52:30.947Z,7.14
2018-11-13T19:54:58.313Z,7.13
2018-11-13T19:57:27.221Z,7.07
2018-11-13T19:59:54.352Z,7.06
2018-11-13T20:02:21.950Z,7.09
2018-11-13T20:04:49.210Z,7.15
2018-11-13T20:07:16.329Z,7.09
2018-11-13T20:09:43.628Z,7.02
2018-11-13T20:12:10.815Z,6.99
2018-11-13T20:14:37.973Z,7.03
2018-11-13T20:17:05.325Z,7.08
2018-11-13T20:19:32.502Z,7.03
2018-11-13T20:21:59.725Z,7.00
2018-11-13T20:24:26.960Z,6.97
2018-11-13T20:26:54.155Z,6.92
2018-11-13T20:29:21.330Z,6.89
2018-11-13T20:31:48.556Z,6.92
2018-11-13T20:34:15.782Z,6.91
2018-11-13T20:36:42.988Z,6.83
2018-11-13T20:39:11.736Z,6.71
2018-11-13T20:41:38.893Z,6.67
2018-11-13T20:44:06.241Z,6.68
2018-11-13T20:46:33.700Z,6.71
2018-11-13T20:49:00.909Z,6.74
2018-11-13T20:51:28.121Z,6.79
2018-11-13T20:53:55.348Z,6.82
2018-11-13T20:56:22.535Z,6.76
2018-11-13T20:58:49.716Z,6.84
2018-11-13T21:01:17.023Z,6.77
2018-11-13T21:03:44.191Z,6.80
2018-11-13T21:06:11.346Z,6.79
2018-11-13T21:08:38.603Z,6.86
2018-11-13T21:11:05.863Z,6.85
2018-11-13T21:13:33.016Z,6.88
2018-11-13T21:16:00.378Z,6.83
2018-11-13T21:18:27.505Z,6.78
2018-11-13T21:20:54.682Z,6.69
2018-11-13T21:23:22.074Z,6.75
2018-11-13T21:25:49.198Z,6.74
2018-11-13T21:28:16.403Z,6.72
2018-11-13T21:30:43.711Z,6.71
2018-11-13T21:33:10.771Z,6.63
2018-11-13T21:35:37.942Z,6.63
2018-11-13T21:38:05.570Z,6.56
2018-11-13T21:40:34.580Z,6.57
2018-11-13T21:43:01.749Z,6.45
2018-11-13T21:45:29.081Z,6.50
2018-11-13T21:47:56.283Z,6.53
2018-11-13T21:50:24.766Z,6.49
2018-11-13T21:52:52.027Z,6.55
2018-11-13T21:55:20.387Z,6.46
2018-11-13T21:57:47.694Z,6.51
2018-11-13T22:00:20.793Z,6.46
2018-11-13T22:02:51.772Z,6.48
2018-11-13T22:05:19.642Z,6.58
2018-11-13T22:07:47.236Z,6.51
2018-11-13T22:10:14.424Z,6.58
2018-11-13T22:12:41.646Z,6.54
2018-11-13T22:15:11.488Z,6.52
2018-11-13T22:17:38.410Z,6.53
2018-11-13T22:20:06.752Z,6.49
2018-11-13T22:22:34.226Z,6.43
2018-11-13T22:25:01.252Z,6.61
2018-11-13T22:27:28.649Z,6.63
2018-11-13T22:29:55.726Z,6.70
2018-11-13T22:32:22.971Z,6.68
2018-11-13T22:34:50.222Z,6.73
2018-11-13T22:37:17.453Z,6.74
2018-11-13T22:39:44.665Z,6.71
2018-11-13T22:42:11.797Z,6.73
2018-11-13T22:44:39.012Z,6.68
2018-11-13T22:47:06.178Z,6.60
2018-11-13T22:49:33.339Z,6.58
2018-11-13T22:52:00.616Z,6.59
2018-11-13T22:54:27.785Z,6.42
2018-11-13T22:56:54.996Z,6.36
2018-11-13T22:59:22.344Z,6.46
2018-11-13T23:01:50.244Z,6.43
2018-11-13T23:04:18.218Z,6.40
2018-11-13T23:06:45.412Z,6.38
2018-11-13T23:09:13.198Z,6.29
2018-11-13T23:11:40.361Z,6.30
2018-11-13T23:14:07.879Z,6.41
2018-11-13T23:16:35.778Z,6.38
2018-11-13T23:19:03.583Z,6.48
2018-11-13T23:21:30.832Z,6.52
2018-11-13T23:23:57.981Z,6.60
2018-11-13T23:26:25.212Z,6.63
2018-11-13T23:28:52.877Z,6.63
2018-11-13T23:31:20.655Z,6.72
2018-11-13T23:33:48.744Z,6.80
2018-11-13T23:36:16.097Z,6.80
2018-11-13T23:38:43.258Z,6.88
2018-11-13T23:41:10.414Z,6.87
2018-11-13T23:43:37.684Z,6.82
2018-11-13T23:46:05.467Z,6.80
2018-11-13T23:48:32.791Z,6.81
2018-11-13T23:50:59.984Z,6.78
2018-11-13T23:53:27.132Z,6.80
2018-11-13T23:55:54.263Z,6.82
2018-11-13T23:58:21.529Z,6.78
